createdAt,value
2023-04-16T00:02:18.106Z,3.34
2023-04-16T00:04:46.915Z,3.35
2023-04-16T00:07:15.196Z,3.35
2023-04-16T00:09:43.400Z,3.25
2023-04-16T00:12:11.750Z,3.20
2023-04-16T00:14:40.021Z,3.21
2023-04-16T00:17:08.445Z,3.15
2023-04-16T00:19:38.371Z,3.09
2023-04-16T00:22:06.748Z,3.09
2023-04-16T00:24:35.051Z,3.05
2023-04-16T00:27:03.668Z,3.00
2023-04-16T00:29:32.488Z,3.03
2023-04-16T00:32:00.591Z,3.01
2023-04-16T00:34:28.782Z,2.98
2023-04-16T00:36:58.260Z,3.00
2023-04-16T00:39:26.516Z,3.03
2023-04-16T00:41:54.719Z,3.04
2023-04-16T00:44:22.974Z,3.05
2023-04-16T00:46:52.154Z,3.10
2023-04-16T00:49:21.104Z,3.10
2023-04-16T00:51:49.463Z,3.01
2023-04-16T00:54:19.420Z,3.08
2023-04-16T00:56:48.213Z,3.10
2023-04-16T00:59:16.933Z,3.11
2023-04-16T01:01:45.341Z,3.11
2023-04-16T01:04:13.712Z,3.11
2023-04-16T01:06:43.926Z,3.10
2023-04-16T01:09:12.896Z,3.13
2023-04-16T01:11:42.559Z,3.11
2023-04-16T01:14:10.834Z,3.15
2023-04-16T01:16:39.646Z,3.16
2023-04-16T01:19:08.326Z,3.27
2023-04-16T01:21:38.136Z,3.22
2023-04-16T01:24:07.027Z,3.23
2023-04-16T01:26:35.255Z,3.23
2023-04-16T01:29:03.893Z,3.28
2023-04-16T01:31:32.106Z,3.36
2023-04-16T01:34:07.272Z,3.38
2023-04-16T01:36:37.863Z,3.36
2023-04-16T01:39:06.204Z,3.36
2023-04-16T01:41:34.544Z,3.36
2023-04-16T01:44:02.710Z,3.32
2023-04-16T01:46:34.612Z,3.32
2023-04-16T01:49:03.046Z,3.38
2023-04-16T01:51:32.296Z,3.31
2023-04-16T01:54:01.993Z,3.34
2023-04-16T01:56:30.388Z,3.35
2023-04-16T01:58:58.613Z,3.34
2023-04-16T02:01:30.853Z,3.33
2023-04-16T02:03:59.502Z,3.40
2023-04-16T02:06:28.621Z,3.37
2023-04-16T02:08:56.843Z,3.40
2023-04-16T02:11:27.297Z,3.43
2023-04-16T02:13:56.404Z,3.43
2023-04-16T02:16:25.114Z,3.39
2023-04-16T02:19:11.644Z,3.37
2023-04-16T02:21:41.845Z,3.35
2023-04-16T02:24:10.057Z,3.30
2023-04-16T02:26:39.780Z,3.30
2023-04-16T02:29:14.389Z,3.32
2023-04-16T02:31:46.824Z,3.37
2023-04-16T02:34:16.166Z,3.40
2023-04-16T02:36:44.297Z,3.37
2023-04-16T02:39:12.524Z,3.38
2023-04-16T02:41:42.304Z,3.40
2023-04-16T02:44:10.565Z,3.38
2023-04-16T02:46:38.749Z,3.36
2023-04-16T02:49:07.269Z,3.40
2023-04-16T02:51:35.762Z,3.39
2023-04-16T02:54:04.260Z,3.41
2023-04-16T02:56:33.364Z,3.41
2023-04-16T02:59:03.098Z,3.40
2023-04-16T03:01:31.352Z,3.40
2023-04-16T03:03:59.844Z,3.41
2023-04-16T03:06:28.245Z,3.45
2023-04-16T03:08:56.403Z,3.45
2023-04-16T03:11:25.032Z,3.42
2023-04-16T03:13:53.972Z,3.43
2023-04-16T03:16:23.623Z,3.42
2023-04-16T03:18:51.906Z,3.43
2023-04-16T03:21:20.094Z,3.41
2023-04-16T03:23:48.334Z,3.44
2023-04-16T03:26:16.602Z,3.47
2023-04-16T03:28:44.896Z,3.44
2023-04-16T03:31:13.549Z,3.43
2023-04-16T03:33:43.151Z,3.32
2023-04-16T03:36:11.728Z,3.35
2023-04-16T03:38:40.097Z,3.42
2023-04-16T03:41:08.829Z,3.42
2023-04-16T03:43:37.216Z,3.40
2023-04-16T03:46:06.618Z,3.26
2023-04-16T03:48:35.085Z,3.26
2023-04-16T03:51:04.910Z,3.26
2023-04-16T03:53:34.289Z,3.29
2023-04-16T03:56:02.563Z,3.29
2023-04-16T03:58:31.387Z,3.27
2023-04-16T04:00:59.639Z,3.17
2023-04-16T04:03:28.179Z,3.14
2023-04-16T04:05:57.239Z,3.25
2023-04-16T04:08:30.837Z,3.25
2023-04-16T04:10:58.974Z,3.25
2023-04-16T04:13:27.190Z,3.18
2023-04-16T04:15:55.773Z,3.21
2023-04-16T04:18:24.898Z,3.17
2023-04-16T04:20:53.500Z,3.17
2023-04-16T04:23:25.523Z,3.10
2023-04-16T04:25:55.271Z,3.16
2023-04-16T04:28:23.850Z,3.15
2023-04-16T04:30:52.140Z,3.12
2023-04-16T04:33:20.696Z,3.16
2023-04-16T04:35:49.488Z,3.20
2023-04-16T04:38:20.196Z,3.20
2023-04-16T04:40:49.347Z,3.16
2023-04-16T04:43:21.722Z,3.27
2023-04-16T04:45:50.043Z,3.28
2023-04-16T04:48:18.785Z,3.34
2023-04-16T04:50:48.016Z,3.34
2023-04-16T04:53:16.413Z,3.40
2023-04-16T04:55:44.772Z,3.43
2023-04-16T04:58:13.130Z,3.47
2023-04-16T05:00:44.692Z,3.48
2023-04-16T05:03:14.240Z,3.52
2023-04-16T05:05:42.616Z,3.51
2023-04-16T05:08:10.991Z,3.61
2023-04-16T05:10:39.260Z,3.67
2023-04-16T05:13:07.816Z,3.64
2023-04-16T05:15:36.122Z,3.75
2023-04-16T05:18:05.872Z,3.73
2023-04-16T05:20:34.081Z,3.81
2023-04-16T05:23:02.427Z,3.86
2023-04-16T05:25:30.800Z,4.05
2023-04-16T05:27:59.151Z,4.10
2023-04-16T05:30:27.448Z,4.14
2023-04-16T05:32:55.738Z,4.28
2023-04-16T05:35:25.491Z,4.36
2023-04-16T05:37:53.724Z,4.51
2023-04-16T05:40:22.210Z,4.48
2023-04-16T05:42:50.640Z,4.63
2023-04-16T05:45:19.375Z,4.68
2023-04-16T05:47:47.961Z,4.81
2023-04-16T05:50:16.388Z,4.86
2023-04-16T05:52:46.309Z,4.97
2023-04-16T05:55:14.628Z,5.13
2023-04-16T05:57:42.816Z,5.25
2023-04-16T06:00:11.550Z,5.46
2023-04-16T06:02:42.936Z,5.51
2023-04-16T06:05:11.971Z,5.69
2023-04-16T06:07:40.433Z,5.80
2023-04-16T06:10:11.885Z,5.86
2023-04-16T06:12:40.365Z,6.05
2023-04-16T06:15:10.251Z,6.20
2023-04-16T06:17:39.010Z,6.33
2023-04-16T06:20:08.577Z,6.53
2023-04-16T06:22:37.000Z,6.55
2023-04-16T06:25:05.871Z,6.62
2023-04-16T06:27:35.885Z,6.81
2023-04-16T06:30:04.474Z,6.85
2023-04-16T06:32:32.838Z,6.84
2023-04-16T06:35:01.109Z,6.94
2023-04-16T06:37:29.332Z,7.09
2023-04-16T06:39:57.754Z,7.18
2023-04-16T06:42:27.561Z,7.27
2023-04-16T06:44:57.340Z,7.51
2023-04-16T06:47:27.260Z,7.50
2023-04-16T06:49:56.057Z,7.50
2023-04-16T06:52:24.615Z,7.48
2023-04-16T06:54:52.839Z,7.64
2023-04-16T06:57:21.059Z,7.87
2023-04-16T06:59:49.417Z,7.78
2023-04-16T07:02:19.747Z,7.92
2023-04-16T07:04:48.368Z,8.01
2023-04-16T07:07:16.863Z,7.96
2023-04-16T07:09:45.227Z,8.13
2023-04-16T07:12:13.890Z,8.06
2023-04-16T07:14:42.954Z,8.09
2023-04-16T07:17:11.462Z,8.11
2023-04-16T07:19:41.695Z,8.31
2023-04-16T07:22:10.251Z,8.38
2023-04-16T07:24:38.786Z,8.36
2023-04-16T07:27:07.423Z,8.63
2023-04-16T07:29:36.640Z,8.77
2023-04-16T07:32:06.293Z,8.77
2023-04-16T07:34:34.603Z,9.18
2023-04-16T07:37:04.602Z,9.33
2023-04-16T07:39:33.562Z,9.22
2023-04-16T07:42:02.678Z,9.26
2023-04-16T07:44:31.996Z,9.18
2023-04-16T07:47:01.895Z,9.15
2023-04-16T07:49:31.255Z,9.45
2023-04-16T07:51:59.603Z,9.68
2023-04-16T07:54:29.354Z,9.70
2023-04-16T07:56:57.623Z,9.85
2023-04-16T07:59:26.600Z,9.81
2023-04-16T08:01:55.497Z,9.84
2023-04-16T08:04:26.472Z,10.08
2023-04-16T08:06:55.284Z,10.12
2023-04-16T08:09:25.211Z,10.00
2023-04-16T08:11:55.260Z,9.84
2023-04-16T08:14:23.628Z,9.91
2023-04-16T08:16:51.776Z,9.80
2023-04-16T08:19:20.161Z,10.11
2023-04-16T08:21:48.755Z,10.50
2023-04-16T08:24:17.177Z,10.94
2023-04-16T08:26:45.531Z,11.46
2023-04-16T08:29:15.189Z,11.46
2023-04-16T08:31:43.640Z,11.67
2023-04-16T08:34:12.742Z,12.36
2023-04-16T08:36:41.830Z,12.36
2023-04-16T08:39:10.520Z,12.32
2023-04-16T08:41:42.179Z,12.56
2023-04-16T08:44:13.393Z,11.86
2023-04-16T08:46:44.330Z,12.07
2023-04-16T08:49:18.110Z,12.19
2023-04-16T08:51:51.998Z,12.07
2023-04-16T08:54:32.359Z,12.33
2023-04-16T08:57:01.617Z,12.21
2023-04-16T08:59:30.625Z,12.28
2023-04-16T09:02:01.868Z,11.88
2023-04-16T09:04:30.784Z,10.71
2023-04-16T09:07:00.166Z,10.88
2023-04-16T09:09:28.724Z,11.09
2023-04-16T09:11:57.596Z,10.95
2023-04-16T09:14:26.423Z,11.01
2023-04-16T09:16:55.838Z,11.31
2023-04-16T09:19:25.859Z,11.14
2023-04-16T09:21:54.253Z,11.03
2023-04-16T09:24:23.215Z,11.18
2023-04-16T09:26:53.072Z,11.05
2023-04-16T09:29:37.841Z,11.59
2023-04-16T09:32:07.816Z,11.33
2023-04-16T09:34:56.143Z,11.25
2023-04-16T09:37:25.062Z,11.66
2023-04-16T09:39:59.141Z,11.71
2023-04-16T09:42:29.410Z,11.86
2023-04-16T09:45:00.331Z,11.70
2023-04-16T09:47:42.256Z,12.03
2023-04-16T09:50:20.706Z,12.37
2023-04-16T09:52:51.894Z,12.51
2023-04-16T09:55:24.912Z,12.48
2023-04-16T09:58:00.485Z,13.24
2023-04-16T10:00:31.235Z,13.55
2023-04-16T10:03:07.517Z,14.17
2023-04-16T10:05:37.853Z,14.13
2023-04-16T10:08:13.528Z,14.23
2023-04-16T10:10:42.919Z,13.97
2023-04-16T10:13:12.912Z,13.77
2023-04-16T10:15:42.218Z,13.77
2023-04-16T10:18:11.514Z,14.07
2023-04-16T10:20:41.961Z,13.97
2023-04-16T10:23:11.081Z,13.74
2023-04-16T10:25:40.493Z,13.29
2023-04-16T10:28:10.798Z,13.22
2023-04-16T10:30:39.894Z,12.97
2023-04-16T10:33:09.773Z,12.88
2023-04-16T10:35:42.414Z,12.56
2023-04-16T10:38:24.852Z,12.69
2023-04-16T10:41:01.547Z,12.91
2023-04-16T10:43:31.381Z,13.28
2023-04-16T10:46:18.727Z,13.56
2023-04-16T10:48:50.233Z,13.98
2023-04-16T10:51:34.423Z,15.38
2023-04-16T10:54:05.950Z,17.14
2023-04-16T10:56:35.590Z,18.87
2023-04-16T10:59:06.810Z,19.40
2023-04-16T11:01:36.807Z,19.11
2023-04-16T11:04:35.039Z,20.21
2023-04-16T11:07:08.018Z,18.69
2023-04-16T11:09:55.235Z,18.81
2023-04-16T11:12:27.497Z,17.62
2023-04-16T11:14:59.479Z,16.64
2023-04-16T11:17:31.403Z,15.91
2023-04-16T11:20:00.423Z,15.66
2023-04-16T11:22:30.595Z,15.49
2023-04-16T11:24:59.215Z,15.86
2023-04-16T11:27:27.714Z,15.77
2023-04-16T11:30:00.320Z,15.44
2023-04-16T11:32:28.788Z,15.35
2023-04-16T11:34:57.359Z,15.14
2023-04-16T11:37:35.213Z,14.96
2023-04-16T11:40:07.130Z,15.01
2023-04-16T11:42:37.311Z,15.59
2023-04-16T11:45:06.284Z,16.83
2023-04-16T11:47:44.628Z,18.53
2023-04-16T11:50:24.057Z,19.83
2023-04-16T11:52:55.685Z,19.30
2023-04-16T11:55:25.677Z,19.35
2023-04-16T11:57:54.146Z,18.56
2023-04-16T12:00:24.621Z,18.70
2023-04-16T12:02:54.689Z,19.64
2023-04-16T12:05:32.410Z,19.68
2023-04-16T12:08:03.974Z,19.27
2023-04-16T12:10:35.409Z,18.77
2023-04-16T12:13:14.315Z,18.53
2023-04-16T12:15:47.430Z,17.78
2023-04-16T12:18:16.656Z,17.16
2023-04-16T12:20:46.288Z,15.73
2023-04-16T12:23:26.764Z,15.15
2023-04-16T12:25:55.844Z,14.90
2023-04-16T12:28:32.175Z,14.75
2023-04-16T12:31:01.270Z,14.24
2023-04-16T12:33:30.767Z,14.33
2023-04-16T12:35:59.597Z,14.04
2023-04-16T12:38:30.637Z,13.84
2023-04-16T12:40:59.261Z,13.80
2023-04-16T12:43:28.632Z,13.85
2023-04-16T12:45:57.412Z,13.92
2023-04-16T12:48:26.023Z,13.77
2023-04-16T12:50:55.478Z,13.74
2023-04-16T12:53:24.326Z,13.72
2023-04-16T12:55:54.906Z,13.66
2023-04-16T12:58:23.490Z,13.67
2023-04-16T13:00:52.018Z,13.56
2023-04-16T13:03:21.282Z,13.52
2023-04-16T13:05:49.999Z,13.48
2023-04-16T13:08:19.080Z,13.66
2023-04-16T13:10:48.289Z,14.01
2023-04-16T13:13:18.602Z,14.19
2023-04-16T13:15:47.358Z,14.16
2023-04-16T13:18:16.293Z,14.42
2023-04-16T13:20:45.122Z,14.88
2023-04-16T13:23:13.707Z,14.82
2023-04-16T13:25:42.633Z,14.66
2023-04-16T13:28:11.464Z,14.47
2023-04-16T13:30:41.541Z,13.78
2023-04-16T13:33:10.647Z,13.32
2023-04-16T13:35:40.304Z,13.13
2023-04-16T13:38:09.460Z,13.00
2023-04-16T13:40:41.202Z,12.96
2023-04-16T13:43:10.227Z,12.77
2023-04-16T13:45:41.748Z,12.67
2023-04-16T13:48:11.340Z,12.61
2023-04-16T13:50:40.422Z,12.58
2023-04-16T13:53:09.568Z,12.38
2023-04-16T13:55:38.773Z,12.24
2023-04-16T13:58:09.456Z,11.92
2023-04-16T14:00:39.271Z,11.74
2023-04-16T14:03:09.357Z,11.69
2023-04-16T14:05:37.814Z,11.84
2023-04-16T14:08:06.958Z,11.91
2023-04-16T14:10:35.776Z,11.90
2023-04-16T14:13:04.495Z,11.91
2023-04-16T14:15:33.482Z,11.77
2023-04-16T14:18:04.217Z,11.96
2023-04-16T14:20:34.241Z,12.10
2023-04-16T14:23:03.153Z,12.22
2023-04-16T14:25:33.823Z,12.33
2023-04-16T14:28:02.564Z,12.58
2023-04-16T14:30:30.867Z,12.74
2023-04-16T14:33:00.322Z,12.93
2023-04-16T14:35:28.753Z,13.01
2023-04-16T14:37:59.527Z,13.25
2023-04-16T14:40:28.305Z,13.28
2023-04-16T14:42:57.118Z,13.50
2023-04-16T14:45:30.115Z,13.56
2023-04-16T14:47:58.635Z,13.64
2023-04-16T14:50:27.082Z,13.83
2023-04-16T14:52:56.079Z,13.88
2023-04-16T14:55:26.082Z,13.87
2023-04-16T14:57:55.234Z,13.73
2023-04-16T15:00:23.727Z,13.71
2023-04-16T15:02:53.049Z,13.52
2023-04-16T15:05:22.088Z,13.37
2023-04-16T15:07:51.414Z,13.35
2023-04-16T15:10:20.077Z,13.28
2023-04-16T15:12:50.416Z,13.15
2023-04-16T15:15:19.150Z,13.01
2023-04-16T15:17:48.731Z,12.73
2023-04-16T15:20:17.973Z,12.68
2023-04-16T15:22:47.306Z,12.58
2023-04-16T15:25:16.431Z,12.58
2023-04-16T15:27:45.504Z,12.55
2023-04-16T15:30:16.108Z,12.35
2023-04-16T15:32:46.130Z,12.16
2023-04-16T15:35:15.722Z,12.13
2023-04-16T15:37:45.815Z,12.01
2023-04-16T15:40:16.164Z,11.80
2023-04-16T15:42:45.782Z,11.73
2023-04-16T15:45:15.757Z,11.74
2023-04-16T15:47:45.910Z,11.74
2023-04-16T15:50:15.358Z,11.78
2023-04-16T15:52:51.736Z,11.77
2023-04-16T15:55:21.564Z,11.78
2023-04-16T15:57:50.934Z,11.61
2023-04-16T16:00:23.825Z,11.61
2023-04-16T16:02:54.406Z,11.63
2023-04-16T16:05:26.997Z,11.66
2023-04-16T16:07:55.879Z,11.54
2023-04-16T16:10:24.989Z,11.52
2023-04-16T16:12:55.165Z,11.53
2023-04-16T16:15:26.395Z,11.42
2023-04-16T16:17:56.284Z,11.37
2023-04-16T16:20:26.427Z,11.25
2023-04-16T16:22:57.064Z,11.28
2023-04-16T16:25:25.774Z,11.21
2023-04-16T16:27:54.957Z,11.12
2023-04-16T16:30:27.002Z,11.08
2023-04-16T16:32:57.426Z,10.98
2023-04-16T16:35:27.605Z,10.99
2023-04-16T16:37:59.083Z,11.00
2023-04-16T16:40:28.486Z,10.97
2023-04-16T16:42:58.380Z,10.95
2023-04-16T16:45:32.724Z,10.97
2023-04-16T16:48:01.688Z,10.97
2023-04-16T16:50:32.109Z,10.90
2023-04-16T16:53:01.307Z,10.82
2023-04-16T16:55:30.504Z,10.84
2023-04-16T16:58:00.199Z,10.75
2023-04-16T17:00:31.102Z,10.77
2023-04-16T17:03:01.310Z,10.74
2023-04-16T17:05:31.450Z,10.75
2023-04-16T17:08:00.640Z,10.72
2023-04-16T17:10:31.176Z,10.71
2023-04-16T17:13:00.620Z,10.69
2023-04-16T17:15:31.756Z,10.69
2023-04-16T17:18:00.484Z,10.60
2023-04-16T17:20:30.134Z,10.57
2023-04-16T17:23:00.178Z,10.54
2023-04-16T17:25:30.761Z,10.57
2023-04-16T17:28:00.054Z,10.43
2023-04-16T17:30:29.105Z,10.28
2023-04-16T17:33:00.112Z,10.18
2023-04-16T17:35:29.975Z,10.06
2023-04-16T17:38:00.236Z,9.94
2023-04-16T17:40:29.791Z,10.01
2023-04-16T17:42:58.840Z,9.88
2023-04-16T17:45:28.731Z,9.83
2023-04-16T17:47:59.429Z,9.71
2023-04-16T17:50:28.535Z,9.57
2023-04-16T17:52:58.792Z,9.48
2023-04-16T17:55:31.442Z,9.47
2023-04-16T17:58:00.986Z,9.45
2023-04-16T18:00:30.425Z,9.42
2023-04-16T18:03:18.306Z,9.35
2023-04-16T18:05:48.225Z,9.28
2023-04-16T18:08:18.634Z,9.27
2023-04-16T18:10:48.062Z,9.12
2023-04-16T18:13:20.541Z,9.07
2023-04-16T18:15:50.141Z,8.98
2023-04-16T18:18:21.966Z,8.82
2023-04-16T18:20:51.183Z,8.89
2023-04-16T18:23:20.190Z,8.89
2023-04-16T18:25:49.336Z,8.79
2023-04-16T18:28:24.644Z,8.85
2023-04-16T18:30:53.755Z,8.93
2023-04-16T18:33:44.404Z,8.86
2023-04-16T18:36:15.314Z,8.80
2023-04-16T18:38:59.561Z,8.77
2023-04-16T18:41:29.721Z,8.65
2023-04-16T18:43:58.799Z,8.57
2023-04-16T18:46:30.667Z,8.51
2023-04-16T18:49:01.581Z,8.44
2023-04-16T18:51:42.504Z,8.44
2023-04-16T18:54:14.547Z,8.48
2023-04-16T18:56:46.531Z,8.35
2023-04-16T18:59:17.257Z,8.40
2023-04-16T19:01:50.115Z,8.43
2023-04-16T19:04:23.208Z,8.43
2023-04-16T19:06:54.460Z,8.42
2023-04-16T19:09:24.164Z,8.38
2023-04-16T19:11:54.023Z,8.36
2023-04-16T19:14:23.311Z,8.27
2023-04-16T19:16:53.136Z,8.29
2023-04-16T19:19:24.290Z,8.32
2023-04-16T19:21:54.316Z,8.33
2023-04-16T19:24:24.414Z,8.28
2023-04-16T19:26:54.367Z,8.29
2023-04-16T19:29:23.872Z,8.32
2023-04-16T19:31:57.779Z,8.28
2023-04-16T19:34:29.702Z,8.30
2023-04-16T19:37:00.654Z,8.28
2023-04-16T19:39:32.138Z,8.24
2023-04-16T19:42:02.730Z,8.27
2023-04-16T19:44:33.045Z,8.28
2023-04-16T19:47:02.003Z,8.28
2023-04-16T19:49:38.862Z,8.24
2023-04-16T19:52:08.455Z,8.22
2023-04-16T19:54:38.125Z,8.24
2023-04-16T19:57:07.344Z,8.18
2023-04-16T19:59:37.365Z,8.28
2023-04-16T20:02:07.658Z,8.34
2023-04-16T20:04:37.971Z,8.32
2023-04-16T20:07:07.770Z,8.31
2023-04-16T20:09:37.662Z,8.33
2023-04-16T20:12:07.335Z,8.30
2023-04-16T20:14:36.294Z,8.33
2023-04-16T20:17:10.376Z,8.43
2023-04-16T20:19:41.207Z,8.44
2023-04-16T20:22:10.049Z,8.50
2023-04-16T20:24:42.311Z,8.55
2023-04-16T20:27:13.181Z,8.55
2023-04-16T20:29:42.479Z,8.57
2023-04-16T20:32:12.001Z,8.62
2023-04-16T20:34:41.883Z,8.60
2023-04-16T20:37:10.578Z,8.66
2023-04-16T20:39:40.645Z,8.61
2023-04-16T20:42:10.611Z,8.66
2023-04-16T20:44:41.476Z,8.70
2023-04-16T20:47:11.461Z,8.73
2023-04-16T20:49:46.996Z,8.76
2023-04-16T20:52:16.315Z,8.76
2023-04-16T20:54:44.595Z,8.82
2023-04-16T20:57:13.023Z,8.85
2023-04-16T20:59:41.393Z,8.89
2023-04-16T21:02:10.220Z,8.95
2023-04-16T21:04:38.607Z,8.90
2023-04-16T21:07:08.732Z,9.02
2023-04-16T21:09:37.312Z,9.06
2023-04-16T21:12:06.256Z,9.01
2023-04-16T21:14:34.752Z,8.99
2023-04-16T21:17:03.123Z,9.08
2023-04-16T21:19:31.390Z,9.12
2023-04-16T21:21:59.696Z,9.18
2023-04-16T21:24:29.483Z,9.12
2023-04-16T21:26:58.087Z,9.13
2023-04-16T21:29:26.406Z,9.16
2023-04-16T21:31:55.493Z,9.17
2023-04-16T21:34:23.938Z,9.11
2023-04-16T21:36:52.268Z,9.10
2023-04-16T21:39:21.895Z,9.11
2023-04-16T21:41:51.990Z,9.11
2023-04-16T21:44:21.250Z,9.11
2023-04-16T21:46:49.958Z,9.14
2023-04-16T21:49:18.372Z,9.07
2023-04-16T21:51:47.293Z,9.07
2023-04-16T21:54:18.094Z,9.13
2023-04-16T21:56:46.475Z,9.14
2023-04-16T21:59:16.536Z,9.22
2023-04-16T22:01:44.816Z,9.21
2023-04-16T22:04:13.447Z,9.17
2023-04-16T22:06:41.812Z,9.18
2023-04-16T22:09:10.375Z,9.18
2023-04-16T22:11:39.035Z,9.16
2023-04-16T22:14:08.935Z,9.19
2023-04-16T22:16:38.680Z,9.15
2023-04-16T22:19:07.476Z,9.20
2023-04-16T22:21:35.807Z,9.10
2023-04-16T22:24:03.999Z,9.15
2023-04-16T22:26:32.300Z,9.16
2023-04-16T22:29:00.725Z,9.17
2023-04-16T22:31:29.304Z,9.13
2023-04-16T22:33:59.806Z,9.13
2023-04-16T22:36:29.388Z,9.07
2023-04-16T22:38:59.136Z,9.08
2023-04-16T22:41:27.377Z,9.03
2023-04-16T22:43:55.616Z,8.99
2023-04-16T22:46:26.383Z,8.99
2023-04-16T22:48:54.887Z,8.97
2023-04-16T22:51:25.447Z,9.06
2023-04-16T22:53:54.391Z,9.07
2023-04-16T22:56:22.668Z,9.03
2023-04-16T22:58:50.955Z,9.07
2023-04-16T23:01:19.252Z,8.92
2023-04-16T23:03:47.684Z,8.86
2023-04-16T23:06:16.055Z,8.92
2023-04-16T23:08:45.691Z,8.92
2023-04-16T23:11:14.221Z,8.95
2023-04-16T23:13:42.981Z,9.01
2023-04-16T23:16:11.643Z,9.03
2023-04-16T23:18:39.837Z,9.06
2023-04-16T23:21:08.136Z,8.95
2023-04-16T23:23:36.887Z,9.04
2023-04-16T23:26:06.728Z,8.92
2023-04-16T23:28:35.127Z,8.92
2023-04-16T23:31:05.273Z,8.95
2023-04-16T23:33:35.123Z,8.94
2023-04-16T23:36:03.589Z,8.95
2023-04-16T23:38:32.626Z,9.04
2023-04-16T23:41:00.753Z,9.05
2023-04-16T23:43:30.577Z,9.00
2023-04-16T23:45:59.424Z,9.03
2023-04-16T23:48:27.857Z,8.89
2023-04-16T23:50:56.175Z,9.06
2023-04-16T23:53:24.574Z,9.07
2023-04-16T23:55:53.068Z,9.00
2023-04-16T23:58:21.262Z,9.07
